Montclair, New Jersey
Current Conditions -  °F | °C
As of 3:53 AM on Thursday 23 Oct 2014 (Local Time) from KCDW Reporting Station
Overcast Overcast  
Wind Chill: 52°   Ceiling: 2100
Heat Index: 52°   Visibility: 10mi
Dew Point: 52°   Wind: 9mph
Humidity: 100%   Direction: 20°NNE
Pressure: 29.73"   Gusts: 16mph
Location:  40.82°N, 74.22°W
Report Text: KCDW 230753Z AUTO 02008G14KT 350V060 10SM OVC021 11/11 A2973 RMK AO2 SLP073 T01110111 TSNO $
Loading
Personal Weather Stations






























Interactive Weather Map
Tropical Storm Tracking
New forecast layout! Learn more

10-Day Weather Forecast

Advertisements
Track Severe Weather on mobile